sensor_id;sensor_type;location;lat;lon;timestamp;P1;durP1;ratioP1;P2;durP2;ratioP2
45077;SDS011;60508;42.622;25.416;2022-10-22T00:02:08;11.98;;;7.00;;
45077;SDS011;60508;42.622;25.416;2022-10-22T00:04:34;17.35;;;7.30;;
45077;SDS011;60508;42.622;25.416;2022-10-22T00:06:59;14.02;;;8.02;;
45077;SDS011;60508;42.622;25.416;2022-10-22T00:09:26;27.55;;;11.50;;
45077;SDS011;60508;42.622;25.416;2022-10-22T00:11:52;14.70;;;8.45;;
45077;SDS011;60508;42.622;25.416;2022-10-22T00:14:18;11.43;;;7.68;;
45077;SDS011;60508;42.622;25.416;2022-10-22T00:16:44;13.38;;;7.68;;
45077;SDS011;60508;42.622;25.416;2022-10-22T00:19:10;12.35;;;7.05;;
45077;SDS011;60508;42.622;25.416;2022-10-22T00:21:37;12.23;;;6.32;;
45077;SDS011;60508;42.622;25.416;2022-10-22T00:24:03;18.52;;;7.43;;
45077;SDS011;60508;42.622;25.416;2022-10-22T00:26:29;14.60;;;8.68;;
45077;SDS011;60508;42.622;25.416;2022-10-22T00:28:55;11.88;;;6.88;;
45077;SDS011;60508;42.622;25.416;2022-10-22T00:31:21;18.50;;;8.25;;
45077;SDS011;60508;42.622;25.416;2022-10-22T00:33:48;11.00;;;6.13;;
45077;SDS011;60508;42.622;25.416;2022-10-22T00:36:14;19.77;;;8.05;;
45077;SDS011;60508;42.622;25.416;2022-10-22T00:38:41;10.93;;;7.28;;
45077;SDS011;60508;42.622;25.416;2022-10-22T00:41:07;15.05;;;8.52;;
45077;SDS011;60508;42.622;25.416;2022-10-22T00:43:51;12.57;;;6.80;;
45077;SDS011;60508;42.622;25.416;2022-10-22T00:46:19;13.07;;;6.70;;
45077;SDS011;60508;42.622;25.416;2022-10-22T00:48:44;9.13;;;6.00;;
45077;SDS011;60508;42.622;25.416;2022-10-22T00:51:10;12.68;;;7.03;;
45077;SDS011;60508;42.622;25.416;2022-10-22T00:53:38;10.43;;;7.28;;
45077;SDS011;60508;42.622;25.416;2022-10-22T00:56:09;11.75;;;7.72;;
45077;SDS011;60508;42.622;25.416;2022-10-22T00:58:36;11.68;;;6.18;;
45077;SDS011;60508;42.622;25.416;2022-10-22T01:01:08;9.25;;;5.35;;
45077;SDS011;60508;42.622;25.416;2022-10-22T01:03:41;13.38;;;8.00;;
45077;SDS011;60508;42.622;25.416;2022-10-22T01:06:08;31.48;;;14.65;;
45077;SDS011;60508;42.622;25.416;2022-10-22T01:19:24;14.02;;;9.50;;
45077;SDS011;60508;42.622;25.416;2022-10-22T01:22:04;17.35;;;8.00;;
45077;SDS011;60508;42.622;25.416;2022-10-22T01:28:06;10.57;;;5.82;;
45077;SDS011;60508;42.622;25.416;2022-10-22T01:30:35;18.13;;;6.15;;
45077;SDS011;60508;42.622;25.416;2022-10-22T01:33:05;13.57;;;8.35;;
45077;SDS011;60508;42.622;25.416;2022-10-22T01:35:36;13.20;;;6.65;;
45077;SDS011;60508;42.622;25.416;2022-10-22T01:38:08;10.73;;;7.35;;
45077;SDS011;60508;42.622;25.416;2022-10-22T01:40:37;22.05;;;9.40;;
45077;SDS011;60508;42.622;25.416;2022-10-22T01:43:05;41.63;;;19.90;;
45077;SDS011;60508;42.622;25.416;2022-10-22T01:45:55;50.60;;;24.25;;
45077;SDS011;60508;42.622;25.416;2022-10-22T01:54:15;98.10;;;44.22;;
45077;SDS011;60508;42.622;25.416;2022-10-22T01:58:53;104.95;;;47.95;;
45077;SDS011;60508;42.622;25.416;2022-10-22T02:04:04;106.75;;;49.08;;
45077;SDS011;60508;42.622;25.416;2022-10-22T02:06:37;79.45;;;38.80;;
45077;SDS011;60508;42.622;25.416;2022-10-22T02:09:05;93.32;;;40.25;;
45077;SDS011;60508;42.622;25.416;2022-10-22T02:11:33;99.57;;;42.67;;
45077;SDS011;60508;42.622;25.416;2022-10-22T02:14:00;88.03;;;43.35;;
45077;SDS011;60508;42.622;25.416;2022-10-22T02:16:50;91.03;;;44.42;;
45077;SDS011;60508;42.622;25.416;2022-10-22T02:21:49;96.63;;;48.72;;
45077;SDS011;60508;42.622;25.416;2022-10-22T02:24:16;118.88;;;50.53;;
45077;SDS011;60508;42.622;25.416;2022-10-22T02:26:48;107.03;;;45.67;;
45077;SDS011;60508;42.622;25.416;2022-10-22T02:29:25;119.80;;;53.05;;
45077;SDS011;60508;42.622;25.416;2022-10-22T02:31:55;115.88;;;53.17;;
45077;SDS011;60508;42.622;25.416;2022-10-22T02:34:26;107.22;;;48.95;;
45077;SDS011;60508;42.622;25.416;2022-10-22T02:36:56;106.88;;;46.90;;
45077;SDS011;60508;42.622;25.416;2022-10-22T02:39:24;100.05;;;44.10;;
45077;SDS011;60508;42.622;25.416;2022-10-22T02:41:52;96.20;;;41.38;;
45077;SDS011;60508;42.622;25.416;2022-10-22T02:44:20;76.07;;;35.10;;
45077;SDS011;60508;42.622;25.416;2022-10-22T02:46:47;69.93;;;31.27;;
45077;SDS011;60508;42.622;25.416;2022-10-22T02:49:13;62.90;;;28.38;;
45077;SDS011;60508;42.622;25.416;2022-10-22T02:51:39;63.65;;;28.13;;
45077;SDS011;60508;42.622;25.416;2022-10-22T02:54:06;58.13;;;26.75;;
45077;SDS011;60508;42.622;25.416;2022-10-22T02:56:32;66.43;;;26.67;;
45077;SDS011;60508;42.622;25.416;2022-10-22T02:58:58;44.65;;;24.48;;
45077;SDS011;60508;42.622;25.416;2022-10-22T03:01:24;44.47;;;22.95;;
45077;SDS011;60508;42.622;25.416;2022-10-22T03:03:50;38.10;;;18.27;;
45077;SDS011;60508;42.622;25.416;2022-10-22T03:06:16;38.70;;;18.73;;
45077;SDS011;60508;42.622;25.416;2022-10-22T03:08:43;33.47;;;15.63;;
45077;SDS011;60508;42.622;25.416;2022-10-22T03:11:09;38.50;;;20.75;;
45077;SDS011;60508;42.622;25.416;2022-10-22T03:13:35;33.15;;;17.65;;
45077;SDS011;60508;42.622;25.416;2022-10-22T03:16:02;29.77;;;15.00;;
45077;SDS011;60508;42.622;25.416;2022-10-22T03:18:28;34.05;;;17.67;;
45077;SDS011;60508;42.622;25.416;2022-10-22T03:21:00;35.17;;;17.13;;
45077;SDS011;60508;42.622;25.416;2022-10-22T03:23:32;40.25;;;19.80;;
45077;SDS011;60508;42.622;25.416;2022-10-22T03:25:58;39.75;;;19.02;;
45077;SDS011;60508;42.622;25.416;2022-10-22T03:28:24;28.20;;;15.10;;
45077;SDS011;60508;42.622;25.416;2022-10-22T03:30:51;37.72;;;15.70;;
45077;SDS011;60508;42.622;25.416;2022-10-22T03:33:17;29.60;;;16.15;;
45077;SDS011;60508;42.622;25.416;2022-10-22T03:35:44;27.30;;;14.25;;
45077;SDS011;60508;42.622;25.416;2022-10-22T03:38:11;37.25;;;16.05;;
45077;SDS011;60508;42.622;25.416;2022-10-22T03:40:39;27.10;;;14.88;;
45077;SDS011;60508;42.622;25.416;2022-10-22T03:43:07;25.02;;;12.68;;
45077;SDS011;60508;42.622;25.416;2022-10-22T03:45:33;33.25;;;13.40;;
45077;SDS011;60508;42.622;25.416;2022-10-22T03:47:59;22.17;;;13.65;;
45077;SDS011;60508;42.622;25.416;2022-10-22T03:50:25;20.77;;;13.30;;
45077;SDS011;60508;42.622;25.416;2022-10-22T03:52:51;20.95;;;12.75;;
45077;SDS011;60508;42.622;25.416;2022-10-22T03:55:18;23.98;;;13.02;;
45077;SDS011;60508;42.622;25.416;2022-10-22T03:57:44;21.15;;;11.25;;
45077;SDS011;60508;42.622;25.416;2022-10-22T04:00:10;24.55;;;10.75;;
45077;SDS011;60508;42.622;25.416;2022-10-22T04:02:36;22.55;;;11.20;;
45077;SDS011;60508;42.622;25.416;2022-10-22T04:05:02;18.02;;;11.13;;
45077;SDS011;60508;42.622;25.416;2022-10-22T04:07:29;19.50;;;9.57;;
45077;SDS011;60508;42.622;25.416;2022-10-22T04:09:55;23.73;;;10.07;;
45077;SDS011;60508;42.622;25.416;2022-10-22T04:12:20;19.30;;;10.00;;
45077;SDS011;60508;42.622;25.416;2022-10-22T04:14:46;20.98;;;11.32;;
45077;SDS011;60508;42.622;25.416;2022-10-22T04:17:13;18.40;;;9.18;;
45077;SDS011;60508;42.622;25.416;2022-10-22T04:19:39;16.38;;;9.32;;
45077;SDS011;60508;42.622;25.416;2022-10-22T04:22:05;16.73;;;9.38;;
45077;SDS011;60508;42.622;25.416;2022-10-22T04:24:31;17.13;;;9.82;;
45077;SDS011;60508;42.622;25.416;2022-10-22T04:26:57;22.33;;;9.60;;
45077;SDS011;60508;42.622;25.416;2022-10-22T04:29:23;15.90;;;8.77;;
45077;SDS011;60508;42.622;25.416;2022-10-22T04:31:50;25.95;;;9.20;;
45077;SDS011;60508;42.622;25.416;2022-10-22T04:34:16;17.33;;;10.25;;
45077;SDS011;60508;42.622;25.416;2022-10-22T04:36:42;13.93;;;8.32;;
45077;SDS011;60508;42.622;25.416;2022-10-22T04:39:08;19.08;;;10.60;;
45077;SDS011;60508;42.622;25.416;2022-10-22T04:41:36;23.98;;;10.60;;
45077;SDS011;60508;42.622;25.416;2022-10-22T04:44:03;19.23;;;10.73;;
45077;SDS011;60508;42.622;25.416;2022-10-22T04:46:31;14.77;;;9.48;;
45077;SDS011;60508;42.622;25.416;2022-10-22T04:48:59;17.70;;;8.20;;
45077;SDS011;60508;42.622;25.416;2022-10-22T04:51:25;13.52;;;8.65;;
45077;SDS011;60508;42.622;25.416;2022-10-22T04:53:52;14.68;;;9.77;;
45077;SDS011;60508;42.622;25.416;2022-10-22T04:56:19;13.98;;;9.45;;
45077;SDS011;60508;42.622;25.416;2022-10-22T04:58:53;25.63;;;11.77;;
45077;SDS011;60508;42.622;25.416;2022-10-22T05:03:58;33.08;;;12.27;;
45077;SDS011;60508;42.622;25.416;2022-10-22T05:06:25;20.52;;;11.70;;
45077;SDS011;60508;42.622;25.416;2022-10-22T05:08:54;23.83;;;11.88;;
45077;SDS011;60508;42.622;25.416;2022-10-22T05:11:23;22.25;;;11.50;;
45077;SDS011;60508;42.622;25.416;2022-10-22T05:13:54;34.90;;;13.27;;
45077;SDS011;60508;42.622;25.416;2022-10-22T05:16:22;27.10;;;11.20;;
45077;SDS011;60508;42.622;25.416;2022-10-22T05:18:48;22.55;;;9.40;;
45077;SDS011;60508;42.622;25.416;2022-10-22T05:21:15;20.75;;;10.38;;
45077;SDS011;60508;42.622;25.416;2022-10-22T05:23:43;23.45;;;9.43;;
45077;SDS011;60508;42.622;25.416;2022-10-22T05:26:10;19.85;;;8.80;;
45077;SDS011;60508;42.622;25.416;2022-10-22T05:28:38;19.25;;;9.43;;
45077;SDS011;60508;42.622;25.416;2022-10-22T05:31:05;26.10;;;10.02;;
45077;SDS011;60508;42.622;25.416;2022-10-22T05:33:33;18.17;;;9.20;;
45077;SDS011;60508;42.622;25.416;2022-10-22T05:36:00;20.17;;;10.20;;
45077;SDS011;60508;42.622;25.416;2022-10-22T05:38:27;16.10;;;10.10;;
45077;SDS011;60508;42.622;25.416;2022-10-22T05:41:00;38.55;;;13.05;;
45077;SDS011;60508;42.622;25.416;2022-10-22T05:43:27;44.63;;;20.88;;
45077;SDS011;60508;42.622;25.416;2022-10-22T05:45:53;51.22;;;21.15;;
45077;SDS011;60508;42.622;25.416;2022-10-22T05:48:20;37.03;;;20.33;;
45077;SDS011;60508;42.622;25.416;2022-10-22T05:50:46;49.13;;;23.83;;
45077;SDS011;60508;42.622;25.416;2022-10-22T05:53:17;63.60;;;28.88;;
45077;SDS011;60508;42.622;25.416;2022-10-22T05:55:43;54.00;;;28.17;;
45077;SDS011;60508;42.622;25.416;2022-10-22T05:58:10;51.00;;;25.30;;
45077;SDS011;60508;42.622;25.416;2022-10-22T06:00:37;68.55;;;31.92;;
45077;SDS011;60508;42.622;25.416;2022-10-22T06:03:03;78.50;;;34.78;;
45077;SDS011;60508;42.622;25.416;2022-10-22T06:05:33;77.60;;;34.53;;
45077;SDS011;60508;42.622;25.416;2022-10-22T06:08:00;63.13;;;30.17;;
45077;SDS011;60508;42.622;25.416;2022-10-22T06:10:26;76.97;;;32.40;;
45077;SDS011;60508;42.622;25.416;2022-10-22T06:12:53;62.72;;;30.10;;
45077;SDS011;60508;42.622;25.416;2022-10-22T06:15:19;73.53;;;30.90;;
45077;SDS011;60508;42.622;25.416;2022-10-22T06:17:46;68.07;;;30.50;;
45077;SDS011;60508;42.622;25.416;2022-10-22T06:20:13;47.30;;;27.85;;
45077;SDS011;60508;42.622;25.416;2022-10-22T06:22:40;52.10;;;24.92;;
45077;SDS011;60508;42.622;25.416;2022-10-22T06:25:07;42.80;;;24.38;;
45077;SDS011;60508;42.622;25.416;2022-10-22T06:27:33;57.05;;;24.88;;
45077;SDS011;60508;42.622;25.416;2022-10-22T06:29:59;46.72;;;22.83;;
45077;SDS011;60508;42.622;25.416;2022-10-22T06:32:25;62.13;;;23.30;;
45077;SDS011;60508;42.622;25.416;2022-10-22T06:34:51;49.03;;;25.40;;
45077;SDS011;60508;42.622;25.416;2022-10-22T06:37:17;58.80;;;26.17;;
45077;SDS011;60508;42.622;25.416;2022-10-22T06:39:44;55.85;;;24.10;;
45077;SDS011;60508;42.622;25.416;2022-10-22T06:42:10;42.92;;;20.92;;
45077;SDS011;60508;42.622;25.416;2022-10-22T06:44:38;46.53;;;24.17;;
45077;SDS011;60508;42.622;25.416;2022-10-22T06:47:04;55.75;;;27.50;;
45077;SDS011;60508;42.622;25.416;2022-10-22T06:49:31;52.08;;;27.05;;
45077;SDS011;60508;42.622;25.416;2022-10-22T06:51:56;67.55;;;32.50;;
45077;SDS011;60508;42.622;25.416;2022-10-22T06:54:22;70.63;;;32.97;;
45077;SDS011;60508;42.622;25.416;2022-10-22T06:56:48;67.97;;;31.90;;
45077;SDS011;60508;42.622;25.416;2022-10-22T06:59:14;78.93;;;33.42;;
45077;SDS011;60508;42.622;25.416;2022-10-22T07:01:40;71.65;;;29.23;;
45077;SDS011;60508;42.622;25.416;2022-10-22T07:04:07;65.22;;;26.17;;
45077;SDS011;60508;42.622;25.416;2022-10-22T07:06:35;64.40;;;27.85;;
45077;SDS011;60508;42.622;25.416;2022-10-22T07:09:01;48.92;;;24.77;;
45077;SDS011;60508;42.622;25.416;2022-10-22T07:11:28;48.13;;;25.17;;
45077;SDS011;60508;42.622;25.416;2022-10-22T07:13:58;56.83;;;25.73;;
45077;SDS011;60508;42.622;25.416;2022-10-22T07:16:25;54.75;;;24.35;;
45077;SDS011;60508;42.622;25.416;2022-10-22T07:18:51;45.95;;;25.45;;
45077;SDS011;60508;42.622;25.416;2022-10-22T07:21:17;47.92;;;24.67;;
45077;SDS011;60508;42.622;25.416;2022-10-22T07:23:45;54.72;;;28.02;;
45077;SDS011;60508;42.622;25.416;2022-10-22T07:26:15;56.55;;;30.27;;
45077;SDS011;60508;42.622;25.416;2022-10-22T07:28:42;63.35;;;31.50;;
45077;SDS011;60508;42.622;25.416;2022-10-22T07:31:08;58.92;;;28.67;;
45077;SDS011;60508;42.622;25.416;2022-10-22T07:33:36;63.75;;;31.13;;
45077;SDS011;60508;42.622;25.416;2022-10-22T07:36:03;55.42;;;29.35;;
45077;SDS011;60508;42.622;25.416;2022-10-22T07:38:33;54.47;;;27.83;;
45077;SDS011;60508;42.622;25.416;2022-10-22T07:40:59;60.13;;;29.77;;
45077;SDS011;60508;42.622;25.416;2022-10-22T07:43:25;54.70;;;32.08;;
45077;SDS011;60508;42.622;25.416;2022-10-22T07:45:51;63.97;;;31.80;;
45077;SDS011;60508;42.622;25.416;2022-10-22T07:48:20;62.83;;;31.17;;
45077;SDS011;60508;42.622;25.416;2022-10-22T07:50:50;65.20;;;30.52;;
45077;SDS011;60508;42.622;25.416;2022-10-22T07:53:16;59.30;;;30.77;;
45077;SDS011;60508;42.622;25.416;2022-10-22T07:55:42;66.38;;;30.23;;
45077;SDS011;60508;42.622;25.416;2022-10-22T07:58:09;65.05;;;31.10;;
45077;SDS011;60508;42.622;25.416;2022-10-22T08:00:35;67.93;;;29.50;;
45077;SDS011;60508;42.622;25.416;2022-10-22T08:03:02;51.38;;;26.35;;
45077;SDS011;60508;42.622;25.416;2022-10-22T08:05:28;48.92;;;24.88;;
45077;SDS011;60508;42.622;25.416;2022-10-22T08:07:54;55.33;;;27.88;;
45077;SDS011;60508;42.622;25.416;2022-10-22T08:10:19;50.10;;;26.80;;
45077;SDS011;60508;42.622;25.416;2022-10-22T08:12:45;50.17;;;26.52;;
45077;SDS011;60508;42.622;25.416;2022-10-22T08:15:11;51.97;;;20.35;;
45077;SDS011;60508;42.622;25.416;2022-10-22T08:17:37;43.85;;;24.10;;
45077;SDS011;60508;42.622;25.416;2022-10-22T08:20:03;42.00;;;25.40;;
45077;SDS011;60508;42.622;25.416;2022-10-22T08:22:29;43.88;;;24.13;;
45077;SDS011;60508;42.622;25.416;2022-10-22T08:24:56;42.80;;;23.30;;
45077;SDS011;60508;42.622;25.416;2022-10-22T08:27:21;41.67;;;21.58;;
45077;SDS011;60508;42.622;25.416;2022-10-22T08:29:47;51.05;;;22.70;;
45077;SDS011;60508;42.622;25.416;2022-10-22T08:32:13;42.78;;;22.55;;
45077;SDS011;60508;42.622;25.416;2022-10-22T08:34:39;41.85;;;22.27;;
45077;SDS011;60508;42.622;25.416;2022-10-22T08:37:05;40.38;;;24.02;;
45077;SDS011;60508;42.622;25.416;2022-10-22T08:39:32;46.58;;;24.50;;
45077;SDS011;60508;42.622;25.416;2022-10-22T08:42:11;42.58;;;23.70;;
45077;SDS011;60508;42.622;25.416;2022-10-22T08:44:54;46.60;;;19.55;;
45077;SDS011;60508;42.622;25.416;2022-10-22T08:47:47;36.40;;;18.05;;
45077;SDS011;60508;42.622;25.416;2022-10-22T08:50:38;37.10;;;18.30;;
45077;SDS011;60508;42.622;25.416;2022-10-22T08:53:14;33.53;;;18.00;;
45077;SDS011;60508;42.622;25.416;2022-10-22T08:58:20;25.40;;;14.85;;
45077;SDS011;60508;42.622;25.416;2022-10-22T09:06:39;32.05;;;16.45;;
45077;SDS011;60508;42.622;25.416;2022-10-22T09:09:10;34.47;;;15.90;;
45077;SDS011;60508;42.622;25.416;2022-10-22T09:11:42;35.20;;;16.90;;
45077;SDS011;60508;42.622;25.416;2022-10-22T09:14:14;37.10;;;18.10;;
45077;SDS011;60508;42.622;25.416;2022-10-22T09:25:20;32.80;;;13.95;;
45077;SDS011;60508;42.622;25.416;2022-10-22T09:27:47;32.53;;;14.68;;
45077;SDS011;60508;42.622;25.416;2022-10-22T09:30:18;25.23;;;12.07;;
45077;SDS011;60508;42.622;25.416;2022-10-22T09:32:50;25.83;;;12.13;;
45077;SDS011;60508;42.622;25.416;2022-10-22T09:35:24;16.33;;;10.30;;
45077;SDS011;60508;42.622;25.416;2022-10-22T09:37:51;30.88;;;11.10;;
45077;SDS011;60508;42.622;25.416;2022-10-22T09:40:19;35.55;;;11.25;;
45077;SDS011;60508;42.622;25.416;2022-10-22T09:42:46;26.45;;;10.15;;
45077;SDS011;60508;42.622;25.416;2022-10-22T09:45:23;19.73;;;9.60;;
45077;SDS011;60508;42.622;25.416;2022-10-22T09:48:02;25.52;;;10.52;;
45077;SDS011;60508;42.622;25.416;2022-10-22T09:50:42;16.40;;;10.15;;
45077;SDS011;60508;42.622;25.416;2022-10-22T09:53:12;30.05;;;9.40;;
45077;SDS011;60508;42.622;25.416;2022-10-22T09:55:52;11.18;;;6.55;;
45077;SDS011;60508;42.622;25.416;2022-10-22T09:58:20;14.80;;;8.43;;
45077;SDS011;60508;42.622;25.416;2022-10-22T10:00:51;10.73;;;6.35;;
45077;SDS011;60508;42.622;25.416;2022-10-22T10:03:23;31.98;;;12.38;;
45077;SDS011;60508;42.622;25.416;2022-10-22T10:05:52;23.58;;;11.00;;
45077;SDS011;60508;42.622;25.416;2022-10-22T10:08:20;13.15;;;9.20;;
45077;SDS011;60508;42.622;25.416;2022-10-22T10:10:47;18.17;;;8.20;;
45077;SDS011;60508;42.622;25.416;2022-10-22T10:15:57;8.90;;;5.70;;
45077;SDS011;60508;42.622;25.416;2022-10-22T10:21:01;16.70;;;6.88;;
45077;SDS011;60508;42.622;25.416;2022-10-22T10:26:44;7.13;;;5.32;;
45077;SDS011;60508;42.622;25.416;2022-10-22T10:32:15;12.00;;;5.93;;
45077;SDS011;60508;42.622;25.416;2022-10-22T10:42:38;26.10;;;13.00;;
45077;SDS011;60508;42.622;25.416;2022-10-22T10:51:21;5.18;;;4.10;;
45077;SDS011;60508;42.622;25.416;2022-10-22T10:59:33;5.35;;;3.20;;
45077;SDS011;60508;42.622;25.416;2022-10-22T11:12:58;12.40;;;5.05;;
45077;SDS011;60508;42.622;25.416;2022-10-22T11:15:32;13.07;;;5.40;;
45077;SDS011;60508;42.622;25.416;2022-10-22T11:21:04;6.93;;;3.30;;
45077;SDS011;60508;42.622;25.416;2022-10-22T11:23:37;6.93;;;3.95;;
45077;SDS011;60508;42.622;25.416;2022-10-22T11:26:11;9.23;;;2.78;;
45077;SDS011;60508;42.622;25.416;2022-10-22T11:28:46;7.50;;;2.65;;
45077;SDS011;60508;42.622;25.416;2022-10-22T11:31:17;6.53;;;2.95;;
45077;SDS011;60508;42.622;25.416;2022-10-22T11:36:17;12.85;;;3.58;;
45077;SDS011;60508;42.622;25.416;2022-10-22T11:38:50;12.57;;;4.53;;
45077;SDS011;60508;42.622;25.416;2022-10-22T11:41:18;10.52;;;3.08;;
45077;SDS011;60508;42.622;25.416;2022-10-22T11:46:25;7.80;;;3.25;;
45077;SDS011;60508;42.622;25.416;2022-10-22T11:49:14;6.82;;;4.93;;
45077;SDS011;60508;42.622;25.416;2022-10-22T11:51:42;7.88;;;4.43;;
45077;SDS011;60508;42.622;25.416;2022-10-22T12:00:00;6.20;;;4.40;;
45077;SDS011;60508;42.622;25.416;2022-10-22T12:02:30;10.27;;;4.57;;
45077;SDS011;60508;42.622;25.416;2022-10-22T12:11:03;8.25;;;3.17;;
45077;SDS011;60508;42.622;25.416;2022-10-22T12:16:42;11.48;;;3.30;;
45077;SDS011;60508;42.622;25.416;2022-10-22T12:19:39;4.65;;;3.47;;
45077;SDS011;60508;42.622;25.416;2022-10-22T12:24:36;12.93;;;4.80;;
45077;SDS011;60508;42.622;25.416;2022-10-22T12:27:25;12.13;;;4.00;;
45077;SDS011;60508;42.622;25.416;2022-10-22T12:29:53;4.93;;;4.03;;
45077;SDS011;60508;42.622;25.416;2022-10-22T12:32:21;6.90;;;3.70;;
45077;SDS011;60508;42.622;25.416;2022-10-22T12:34:49;4.32;;;3.58;;
45077;SDS011;60508;42.622;25.416;2022-10-22T12:37:16;3.35;;;2.70;;
45077;SDS011;60508;42.622;25.416;2022-10-22T12:39:44;5.45;;;3.47;;
45077;SDS011;60508;42.622;25.416;2022-10-22T12:42:14;4.45;;;4.00;;
45077;SDS011;60508;42.622;25.416;2022-10-22T12:44:45;6.18;;;3.42;;
45077;SDS011;60508;42.622;25.416;2022-10-22T12:47:14;6.35;;;3.60;;
45077;SDS011;60508;42.622;25.416;2022-10-22T12:49:43;8.25;;;3.92;;
45077;SDS011;60508;42.622;25.416;2022-10-22T12:52:15;6.85;;;4.18;;
45077;SDS011;60508;42.622;25.416;2022-10-22T12:54:44;12.10;;;6.28;;
45077;SDS011;60508;42.622;25.416;2022-10-22T12:57:12;14.45;;;5.18;;
45077;SDS011;60508;42.622;25.416;2022-10-22T12:59:40;10.00;;;4.57;;
45077;SDS011;60508;42.622;25.416;2022-10-22T13:04:53;14.52;;;4.93;;
45077;SDS011;60508;42.622;25.416;2022-10-22T13:07:39;6.97;;;4.60;;
45077;SDS011;60508;42.622;25.416;2022-10-22T13:10:18;7.28;;;4.07;;
45077;SDS011;60508;42.622;25.416;2022-10-22T13:12:47;9.00;;;5.65;;
45077;SDS011;60508;42.622;25.416;2022-10-22T13:22:56;16.08;;;5.70;;
45077;SDS011;60508;42.622;25.416;2022-10-22T13:25:29;19.40;;;14.85;;
45077;SDS011;60508;42.622;25.416;2022-10-22T13:28:01;11.68;;;7.13;;
45077;SDS011;60508;42.622;25.416;2022-10-22T13:30:49;14.20;;;7.05;;
45077;SDS011;60508;42.622;25.416;2022-10-22T13:35:59;13.57;;;6.90;;
45077;SDS011;60508;42.622;25.416;2022-10-22T13:38:26;14.15;;;8.65;;
45077;SDS011;60508;42.622;25.416;2022-10-22T13:40:53;12.07;;;6.30;;
45077;SDS011;60508;42.622;25.416;2022-10-22T13:43:19;13.30;;;7.15;;
45077;SDS011;60508;42.622;25.416;2022-10-22T13:45:46;19.45;;;7.63;;
45077;SDS011;60508;42.622;25.416;2022-10-22T13:48:14;13.95;;;7.13;;
45077;SDS011;60508;42.622;25.416;2022-10-22T13:50:43;14.48;;;9.35;;
45077;SDS011;60508;42.622;25.416;2022-10-22T13:53:18;20.33;;;10.48;;
45077;SDS011;60508;42.622;25.416;2022-10-22T13:55:49;20.20;;;10.45;;
45077;SDS011;60508;42.622;25.416;2022-10-22T13:58:17;16.85;;;7.53;;
45077;SDS011;60508;42.622;25.416;2022-10-22T14:00:46;14.68;;;8.45;;
45077;SDS011;60508;42.622;25.416;2022-10-22T14:03:15;10.13;;;7.45;;
45077;SDS011;60508;42.622;25.416;2022-10-22T14:05:45;20.52;;;7.50;;
45077;SDS011;60508;42.622;25.416;2022-10-22T14:08:13;12.32;;;5.68;;
45077;SDS011;60508;42.622;25.416;2022-10-22T14:10:41;15.60;;;5.88;;
45077;SDS011;60508;42.622;25.416;2022-10-22T14:13:14;9.25;;;4.57;;
45077;SDS011;60508;42.622;25.416;2022-10-22T14:15:41;5.93;;;3.80;;
45077;SDS011;60508;42.622;25.416;2022-10-22T14:18:19;8.38;;;5.43;;
45077;SDS011;60508;42.622;25.416;2022-10-22T14:20:55;12.95;;;4.15;;
45077;SDS011;60508;42.622;25.416;2022-10-22T14:23:27;8.88;;;5.35;;
45077;SDS011;60508;42.622;25.416;2022-10-22T14:25:55;18.85;;;8.52;;
45077;SDS011;60508;42.622;25.416;2022-10-22T14:28:21;12.02;;;6.68;;
45077;SDS011;60508;42.622;25.416;2022-10-22T14:30:47;14.13;;;6.35;;
45077;SDS011;60508;42.622;25.416;2022-10-22T14:33:16;9.43;;;6.25;;
45077;SDS011;60508;42.622;25.416;2022-10-22T14:35:47;17.00;;;6.18;;
45077;SDS011;60508;42.622;25.416;2022-10-22T14:38:14;7.18;;;4.80;;
45077;SDS011;60508;42.622;25.416;2022-10-22T14:40:40;9.30;;;4.38;;
45077;SDS011;60508;42.622;25.416;2022-10-22T14:43:15;17.42;;;4.72;;
45077;SDS011;60508;42.622;25.416;2022-10-22T14:45:47;7.03;;;3.35;;
45077;SDS011;60508;42.622;25.416;2022-10-22T14:48:13;8.15;;;4.20;;
45077;SDS011;60508;42.622;25.416;2022-10-22T14:50:41;5.90;;;4.32;;
45077;SDS011;60508;42.622;25.416;2022-10-22T14:53:11;14.20;;;6.22;;
45077;SDS011;60508;42.622;25.416;2022-10-22T14:55:38;15.55;;;5.53;;
45077;SDS011;60508;42.622;25.416;2022-10-22T14:58:05;12.88;;;7.25;;
45077;SDS011;60508;42.622;25.416;2022-10-22T15:00:31;17.17;;;8.23;;
45077;SDS011;60508;42.622;25.416;2022-10-22T15:02:58;17.95;;;8.77;;
45077;SDS011;60508;42.622;25.416;2022-10-22T15:05:25;19.38;;;10.02;;
45077;SDS011;60508;42.622;25.416;2022-10-22T15:07:51;21.88;;;9.73;;
45077;SDS011;60508;42.622;25.416;2022-10-22T15:10:17;27.63;;;11.48;;
45077;SDS011;60508;42.622;25.416;2022-10-22T15:12:43;25.33;;;9.48;;
45077;SDS011;60508;42.622;25.416;2022-10-22T15:15:09;22.25;;;8.88;;
45077;SDS011;60508;42.622;25.416;2022-10-22T15:17:35;28.70;;;9.25;;
45077;SDS011;60508;42.622;25.416;2022-10-22T15:20:02;20.02;;;8.88;;
45077;SDS011;60508;42.622;25.416;2022-10-22T15:22:30;28.42;;;9.45;;
45077;SDS011;60508;42.622;25.416;2022-10-22T15:25:00;18.15;;;9.88;;
45077;SDS011;60508;42.622;25.416;2022-10-22T15:27:31;37.45;;;11.10;;
45077;SDS011;60508;42.622;25.416;2022-10-22T15:29:57;17.42;;;8.27;;
45077;SDS011;60508;42.622;25.416;2022-10-22T15:32:24;16.08;;;10.27;;
45077;SDS011;60508;42.622;25.416;2022-10-22T15:34:51;34.22;;;20.00;;
45077;SDS011;60508;42.622;25.416;2022-10-22T15:37:19;30.92;;;10.00;;
45077;SDS011;60508;42.622;25.416;2022-10-22T15:39:45;16.50;;;8.77;;
45077;SDS011;60508;42.622;25.416;2022-10-22T15:42:11;22.05;;;10.00;;
45077;SDS011;60508;42.622;25.416;2022-10-22T15:44:38;40.30;;;11.65;;
45077;SDS011;60508;42.622;25.416;2022-10-22T15:47:05;16.00;;;7.82;;
45077;SDS011;60508;42.622;25.416;2022-10-22T15:49:32;19.42;;;7.75;;
45077;SDS011;60508;42.622;25.416;2022-10-22T15:52:00;18.70;;;7.75;;
45077;SDS011;60508;42.622;25.416;2022-10-22T15:54:27;28.10;;;11.55;;
45077;SDS011;60508;42.622;25.416;2022-10-22T15:56:55;18.42;;;12.43;;
45077;SDS011;60508;42.622;25.416;2022-10-22T15:59:21;26.77;;;10.63;;
45077;SDS011;60508;42.622;25.416;2022-10-22T16:01:48;18.08;;;9.20;;
45077;SDS011;60508;42.622;25.416;2022-10-22T16:04:14;17.05;;;8.57;;
45077;SDS011;60508;42.622;25.416;2022-10-22T16:06:41;26.08;;;13.05;;
45077;SDS011;60508;42.622;25.416;2022-10-22T16:09:11;16.33;;;9.98;;
45077;SDS011;60508;42.622;25.416;2022-10-22T16:11:44;26.80;;;15.63;;
45077;SDS011;60508;42.622;25.416;2022-10-22T16:14:11;28.27;;;16.63;;
45077;SDS011;60508;42.622;25.416;2022-10-22T16:16:41;34.72;;;22.70;;
45077;SDS011;60508;42.622;25.416;2022-10-22T16:19:09;38.25;;;20.42;;
45077;SDS011;60508;42.622;25.416;2022-10-22T16:21:36;18.45;;;12.30;;
45077;SDS011;60508;42.622;25.416;2022-10-22T16:24:03;16.77;;;10.18;;
45077;SDS011;60508;42.622;25.416;2022-10-22T16:26:30;17.42;;;7.50;;
45077;SDS011;60508;42.622;25.416;2022-10-22T16:28:57;12.18;;;8.23;;
45077;SDS011;60508;42.622;25.416;2022-10-22T16:31:24;15.68;;;6.50;;
45077;SDS011;60508;42.622;25.416;2022-10-22T16:33:50;14.82;;;6.60;;